createdAt,value
2024-04-14T00:00:44.626Z,65.14
2024-04-14T00:01:46.172Z,65.08
2024-04-14T00:02:47.665Z,65.11
2024-04-14T00:03:55.856Z,65.11
2024-04-14T00:04:57.511Z,65.03
2024-04-14T00:05:59.173Z,65.01
2024-04-14T00:07:00.661Z,65.16
2024-04-14T00:08:02.395Z,65.00
2024-04-14T00:09:04.131Z,64.92
2024-04-14T00:10:05.817Z,64.97
2024-04-14T00:11:07.418Z,64.97
2024-04-14T00:12:08.916Z,65.00
2024-04-14T00:13:10.406Z,65.10
2024-04-14T00:14:12.032Z,65.29
2024-04-14T00:15:13.504Z,65.21
2024-04-14T00:16:15.502Z,65.11
2024-04-14T00:17:17.757Z,65.10
2024-04-14T00:18:19.331Z,65.13
2024-04-14T00:19:21.411Z,65.16
2024-04-14T00:20:24.821Z,65.13
2024-04-14T00:21:26.631Z,65.10
2024-04-14T00:22:28.095Z,65.25
2024-04-14T00:23:29.610Z,65.47
2024-04-14T00:24:31.065Z,65.48
2024-04-14T00:25:34.378Z,65.35
2024-04-14T00:26:35.840Z,65.33
2024-04-14T00:27:37.314Z,65.43
2024-04-14T00:28:39.168Z,65.21
2024-04-14T00:29:40.626Z,65.25
2024-04-14T00:30:42.148Z,65.17
2024-04-14T00:31:43.625Z,65.13
2024-04-14T00:32:47.204Z,65.22
2024-04-14T00:33:51.251Z,65.35
2024-04-14T00:34:52.733Z,65.28
2024-04-14T00:35:54.210Z,65.25
2024-04-14T00:36:55.716Z,65.31
2024-04-14T00:37:57.220Z,65.30
2024-04-14T00:38:58.711Z,65.33
2024-04-14T00:40:00.278Z,65.16
2024-04-14T00:41:02.279Z,65.13
2024-04-14T00:42:03.868Z,65.11
2024-04-14T00:43:05.311Z,65.34
2024-04-14T00:44:06.844Z,65.24
2024-04-14T00:45:08.828Z,65.27
2024-04-14T00:46:10.262Z,65.28
2024-04-14T00:47:12.025Z,65.32
2024-04-14T00:48:13.833Z,65.60
2024-04-14T00:49:15.442Z,65.48
2024-04-14T00:50:16.977Z,65.50
2024-04-14T00:51:19.993Z,65.34
2024-04-14T00:52:21.668Z,65.36
2024-04-14T00:53:23.236Z,65.50
2024-04-14T00:54:24.766Z,65.58
2024-04-14T00:55:26.569Z,65.69
2024-04-14T00:56:28.812Z,65.74
2024-04-14T00:57:32.922Z,65.72
2024-04-14T00:58:34.508Z,65.68
2024-04-14T00:59:36.272Z,65.58
2024-04-14T01:00:38.048Z,65.62
2024-04-14T01:01:39.616Z,65.53
2024-04-14T01:02:41.173Z,65.67
2024-04-14T01:03:42.897Z,65.63
2024-04-14T01:04:44.477Z,65.72
2024-04-14T01:05:45.969Z,65.93
2024-04-14T01:06:47.907Z,65.93
2024-04-14T01:07:50.924Z,65.94
2024-04-14T01:08:52.390Z,65.90
2024-04-14T01:09:54.636Z,65.89
2024-04-14T01:10:56.175Z,65.89
2024-04-14T01:11:57.662Z,65.85
2024-04-14T01:12:59.180Z,65.77
2024-04-14T01:14:07.802Z,65.83
2024-04-14T01:15:09.588Z,66.02
2024-04-14T01:16:11.035Z,66.29
2024-04-14T01:17:12.961Z,66.16
2024-04-14T01:18:14.452Z,66.13
2024-04-14T01:19:15.940Z,66.09
2024-04-14T01:20:17.434Z,66.07
2024-04-14T01:21:18.880Z,66.14
2024-04-14T01:22:20.330Z,66.19
2024-04-14T01:23:21.792Z,66.23
2024-04-14T01:24:23.344Z,66.36
2024-04-14T01:25:25.575Z,66.28
2024-04-14T01:26:27.157Z,66.39
2024-04-14T01:27:28.643Z,66.32
2024-04-14T01:28:30.526Z,66.27
2024-04-14T01:29:32.179Z,66.28
2024-04-14T01:30:33.699Z,66.19
2024-04-14T01:31:35.172Z,66.14
2024-04-14T01:32:39.380Z,66.18
2024-04-14T01:33:41.076Z,66.18
2024-04-14T01:34:42.539Z,66.22
2024-04-14T01:35:44.019Z,66.41
2024-04-14T01:36:45.509Z,66.37
2024-04-14T01:37:47.049Z,66.37
2024-04-14T01:38:48.508Z,66.41
2024-04-14T01:39:49.998Z,66.60
2024-04-14T01:40:51.472Z,66.59
2024-04-14T01:41:53.054Z,66.48
2024-04-14T01:42:54.632Z,66.50
2024-04-14T01:43:56.389Z,66.63
2024-04-14T01:44:57.850Z,66.57
2024-04-14T01:45:59.508Z,66.47
2024-04-14T01:47:02.418Z,66.42
2024-04-14T01:48:04.960Z,66.36
2024-04-14T01:49:06.788Z,66.42
2024-04-14T01:50:08.298Z,66.49
2024-04-14T01:51:09.799Z,66.47
2024-04-14T01:52:11.257Z,66.56
2024-04-14T01:53:12.732Z,66.61
2024-04-14T01:54:14.179Z,66.72
2024-04-14T01:55:15.652Z,66.68
2024-04-14T01:56:17.124Z,66.69
2024-04-14T01:57:18.561Z,66.74
2024-04-14T01:58:20.102Z,66.83
2024-04-14T01:59:21.568Z,66.88
2024-04-14T02:00:23.034Z,67.03
2024-04-14T02:01:24.601Z,66.94
2024-04-14T02:02:26.106Z,66.97
2024-04-14T02:03:27.651Z,66.95
2024-04-14T02:04:29.252Z,67.08
2024-04-14T02:05:30.764Z,67.24
2024-04-14T02:06:32.292Z,67.34
2024-04-14T02:07:33.763Z,67.35
2024-04-14T02:08:35.219Z,67.42
2024-04-14T02:09:36.858Z,67.43
2024-04-14T02:10:41.552Z,67.43
2024-04-14T02:11:43.072Z,67.60
2024-04-14T02:12:44.598Z,67.78
2024-04-14T02:13:46.066Z,67.86
2024-04-14T02:14:47.528Z,67.96
2024-04-14T02:15:49.027Z,68.03
2024-04-14T02:16:50.538Z,68.02
2024-04-14T02:17:52.077Z,67.99
2024-04-14T02:18:53.606Z,68.12
2024-04-14T02:19:55.058Z,68.30
2024-04-14T02:20:56.540Z,68.36
2024-04-14T02:21:58.091Z,68.42
2024-04-14T02:22:59.545Z,68.48
2024-04-14T02:24:01.212Z,68.44
2024-04-14T02:25:02.968Z,68.52
2024-04-14T02:26:04.958Z,68.50
2024-04-14T02:27:06.430Z,68.45
2024-04-14T02:28:08.119Z,68.56
2024-04-14T02:29:09.726Z,68.61
2024-04-14T02:30:11.200Z,68.63
2024-04-14T02:31:12.860Z,68.75
2024-04-14T02:32:14.374Z,68.76
2024-04-14T02:33:16.183Z,68.87
2024-04-14T02:34:17.637Z,68.93
2024-04-14T02:35:19.107Z,69.10
2024-04-14T02:36:20.575Z,69.18
2024-04-14T02:37:22.152Z,69.07
2024-04-14T02:38:23.873Z,69.20
2024-04-14T02:39:25.361Z,69.25
2024-04-14T02:40:26.808Z,69.26
2024-04-14T02:41:28.296Z,69.34
2024-04-14T02:42:32.020Z,69.42
2024-04-14T02:43:33.503Z,69.44
2024-04-14T02:44:34.970Z,69.43
2024-04-14T02:45:36.476Z,69.50
2024-04-14T02:46:38.081Z,69.47
2024-04-14T02:47:39.696Z,69.46
2024-04-14T02:48:47.943Z,69.49
2024-04-14T02:49:49.416Z,69.56
2024-04-14T02:50:50.886Z,69.63
2024-04-14T02:51:52.361Z,69.69
2024-04-14T02:52:53.815Z,69.69
2024-04-14T02:53:55.270Z,69.79
2024-04-14T02:54:56.792Z,69.92
2024-04-14T02:55:58.254Z,69.99
2024-04-14T02:57:00.144Z,70.00
2024-04-14T02:58:02.060Z,70.07
2024-04-14T02:59:03.588Z,70.13
2024-04-14T03:00:05.789Z,70.15
2024-04-14T03:01:07.615Z,70.23
2024-04-14T03:02:09.175Z,70.22
2024-04-14T03:03:10.743Z,70.22
2024-04-14T03:04:12.382Z,70.26
2024-04-14T03:05:13.916Z,70.26
2024-04-14T03:06:15.362Z,70.27
2024-04-14T03:07:16.877Z,70.37
2024-04-14T03:08:18.894Z,70.44
2024-04-14T03:09:20.560Z,70.35
2024-04-14T03:10:22.064Z,70.40
2024-04-14T03:11:23.603Z,70.48
2024-04-14T03:12:25.126Z,70.58
2024-04-14T03:13:26.889Z,70.58
2024-04-14T03:14:28.415Z,70.67
2024-04-14T03:15:30.934Z,70.69
2024-04-14T03:16:32.487Z,70.70
2024-04-14T03:17:33.959Z,70.72
2024-04-14T03:18:35.521Z,70.71
2024-04-14T03:19:37.004Z,70.68
2024-04-14T03:20:38.570Z,70.75
2024-04-14T03:21:40.044Z,70.75
2024-04-14T03:22:41.480Z,70.85
2024-04-14T03:23:42.964Z,70.86
2024-04-14T03:24:44.414Z,71.00
2024-04-14T03:25:45.869Z,70.97
2024-04-14T03:26:47.329Z,70.97
2024-04-14T03:27:48.938Z,70.98
2024-04-14T03:28:50.405Z,70.97
2024-04-14T03:29:51.847Z,70.99
2024-04-14T03:30:59.294Z,71.02
2024-04-14T03:32:00.816Z,71.06
2024-04-14T03:33:02.368Z,71.15
2024-04-14T03:34:04.011Z,71.14
2024-04-14T03:35:05.559Z,71.16
2024-04-14T03:36:07.736Z,71.21
2024-04-14T03:37:10.652Z,71.31
2024-04-14T03:38:12.120Z,71.43
2024-04-14T03:39:13.593Z,71.50
2024-04-14T03:40:15.117Z,71.63
2024-04-14T03:41:16.553Z,71.67
2024-04-14T03:42:18.026Z,71.56
2024-04-14T03:43:19.704Z,71.76
2024-04-14T03:44:21.429Z,71.90
2024-04-14T03:45:24.859Z,71.99
2024-04-14T03:46:26.301Z,71.93
2024-04-14T03:47:27.765Z,71.90
2024-04-14T03:48:29.428Z,72.00
2024-04-14T03:49:30.976Z,72.05
2024-04-14T03:50:32.419Z,72.21
2024-04-14T03:51:34.392Z,72.15
2024-04-14T03:52:35.923Z,72.12
2024-04-14T03:53:37.373Z,72.20
2024-04-14T03:54:38.895Z,72.36
2024-04-14T03:55:41.132Z,72.47
2024-04-14T03:56:42.683Z,72.45
2024-04-14T03:57:44.175Z,72.51
2024-04-14T03:58:45.624Z,72.63
2024-04-14T03:59:48.948Z,72.70
2024-04-14T04:00:50.530Z,72.67
2024-04-14T04:01:52.092Z,72.70
2024-04-14T04:02:53.557Z,72.63
2024-04-14T04:03:55.076Z,72.59
2024-04-14T04:04:56.690Z,72.58
2024-04-14T04:05:58.284Z,72.79
2024-04-14T04:06:59.819Z,72.78
2024-04-14T04:08:05.257Z,72.75
2024-04-14T04:09:08.180Z,72.84
2024-04-14T04:10:09.653Z,72.80
2024-04-14T04:11:11.199Z,72.77
2024-04-14T04:12:12.755Z,72.81
2024-04-14T04:13:14.219Z,72.81
2024-04-14T04:14:15.672Z,72.82
2024-04-14T04:15:17.175Z,72.81
2024-04-14T04:16:18.627Z,72.91
2024-04-14T04:17:20.075Z,72.93
2024-04-14T04:18:22.208Z,72.92
2024-04-14T04:19:27.440Z,72.96
2024-04-14T04:20:29.702Z,73.05
2024-04-14T04:21:31.347Z,73.18
2024-04-14T04:22:32.819Z,73.19
2024-04-14T04:23:34.307Z,73.16
2024-04-14T04:24:35.895Z,73.19
2024-04-14T04:25:37.386Z,73.31
2024-04-14T04:26:38.837Z,73.45
2024-04-14T04:27:40.318Z,73.32
2024-04-14T04:28:41.781Z,73.37
2024-04-14T04:29:43.242Z,73.29
2024-04-14T04:30:44.760Z,73.28
2024-04-14T04:31:46.221Z,73.45
2024-04-14T04:32:48.405Z,73.46
2024-04-14T04:33:50.333Z,73.53
2024-04-14T04:34:52.455Z,73.52
2024-04-14T04:35:54.923Z,73.47
2024-04-14T04:36:56.428Z,73.40
2024-04-14T04:37:57.891Z,73.47
2024-04-14T04:39:04.107Z,73.55
2024-04-14T04:40:05.978Z,73.67
2024-04-14T04:41:08.407Z,73.62
2024-04-14T04:42:09.854Z,73.67
2024-04-14T04:43:11.313Z,73.82
2024-04-14T04:44:12.837Z,73.78
2024-04-14T04:45:14.324Z,73.86
2024-04-14T04:46:15.794Z,73.77
2024-04-14T04:47:17.275Z,73.80
2024-04-14T04:48:18.814Z,73.63
2024-04-14T04:49:20.350Z,73.61
2024-04-14T04:50:21.817Z,73.57
2024-04-14T04:51:23.645Z,73.51
2024-04-14T04:52:25.111Z,73.46
2024-04-14T04:53:26.576Z,73.42
2024-04-14T04:54:28.062Z,73.46
2024-04-14T04:55:29.560Z,73.46
2024-04-14T04:56:31.460Z,73.39
2024-04-14T04:57:32.953Z,73.29
2024-04-14T04:58:34.489Z,73.14
2024-04-14T04:59:36.015Z,73.01
2024-04-14T05:00:37.561Z,72.87
2024-04-14T05:01:39.190Z,72.75
2024-04-14T05:02:40.706Z,72.70
2024-04-14T05:03:42.348Z,72.59
2024-04-14T05:04:43.904Z,72.43
2024-04-14T05:05:58.005Z,72.26
2024-04-14T05:06:59.673Z,72.14
2024-04-14T05:08:01.216Z,72.03
2024-04-14T05:09:03.471Z,71.97
2024-04-14T05:10:05.630Z,71.88
2024-04-14T05:11:07.193Z,71.79
2024-04-14T05:12:08.727Z,71.64
2024-04-14T05:13:11.302Z,71.40
2024-04-14T05:14:12.756Z,71.35
2024-04-14T05:15:14.350Z,71.14
2024-04-14T05:16:15.872Z,71.03
2024-04-14T05:17:17.381Z,70.92
2024-04-14T05:18:19.100Z,70.81
2024-04-14T05:19:20.641Z,70.67
2024-04-14T05:20:22.123Z,70.53
2024-04-14T05:21:23.623Z,70.37
2024-04-14T05:22:25.115Z,70.16
2024-04-14T05:23:26.571Z,70.02
2024-04-14T05:24:28.056Z,69.84
2024-04-14T05:25:29.521Z,69.57
2024-04-14T05:26:30.979Z,69.32
2024-04-14T05:27:32.487Z,68.92
2024-04-14T05:28:33.942Z,68.32
2024-04-14T05:29:35.822Z,67.20
2024-04-14T05:30:39.493Z,66.31
2024-04-14T05:31:41.085Z,65.59
2024-04-14T05:32:42.823Z,65.12
2024-04-14T05:33:44.377Z,64.55
2024-04-14T05:34:45.829Z,63.56
2024-04-14T05:35:57.148Z,62.70
2024-04-14T05:36:58.721Z,61.47
2024-04-14T05:38:00.343Z,60.47
2024-04-14T05:39:01.855Z,59.38
2024-04-14T05:40:03.567Z,58.30
2024-04-14T05:41:05.046Z,57.68
2024-04-14T05:42:06.523Z,57.26
2024-04-14T05:43:08.001Z,56.54
2024-04-14T05:44:09.463Z,55.57
2024-04-14T05:45:10.919Z,54.38
2024-04-14T05:46:12.416Z,53.61
2024-04-14T05:47:13.945Z,52.57
2024-04-14T05:48:15.545Z,52.16
2024-04-14T05:49:20.442Z,51.93
2024-04-14T05:50:22.353Z,51.43
2024-04-14T05:51:23.860Z,51.08
2024-04-14T05:52:25.358Z,50.61
2024-04-14T05:53:26.867Z,50.33
2024-04-14T05:54:28.543Z,49.84
2024-04-14T05:55:30.015Z,49.49
2024-04-14T05:56:31.471Z,49.37
2024-04-14T05:57:33.684Z,49.25
2024-04-14T05:58:35.207Z,49.04
2024-04-14T05:59:36.656Z,48.44
2024-04-14T06:00:38.438Z,47.98
2024-04-14T06:01:40.184Z,47.85
2024-04-14T06:02:41.754Z,47.62
2024-04-14T06:03:48.303Z,47.45
2024-04-14T06:04:50.302Z,47.22
2024-04-14T06:05:51.825Z,47.27
2024-04-14T06:06:53.326Z,47.01
2024-04-14T06:07:55.061Z,47.01
2024-04-14T06:08:56.558Z,46.90
2024-04-14T06:09:58.083Z,46.81
2024-04-14T06:10:59.713Z,46.63
2024-04-14T06:12:01.180Z,46.49
2024-04-14T06:13:02.683Z,46.44
2024-04-14T06:14:04.254Z,46.15
2024-04-14T06:15:06.042Z,46.10
2024-04-14T06:16:07.560Z,46.14
2024-04-14T06:17:09.064Z,46.12
2024-04-14T06:18:10.736Z,46.19
2024-04-14T06:19:12.283Z,46.17
2024-04-14T06:20:13.742Z,46.14
2024-04-14T06:21:15.207Z,46.10
2024-04-14T06:22:17.129Z,46.02
2024-04-14T06:23:21.129Z,46.13
2024-04-14T06:24:23.167Z,46.23
2024-04-14T06:25:24.680Z,46.09
2024-04-14T06:26:26.338Z,46.03
2024-04-14T06:27:27.817Z,46.01
2024-04-14T06:28:30.067Z,45.99
2024-04-14T06:29:33.348Z,45.87
2024-04-14T06:30:36.710Z,45.87
2024-04-14T06:31:38.266Z,45.99
2024-04-14T06:32:40.701Z,45.91
2024-04-14T06:33:42.287Z,45.85
2024-04-14T06:34:43.807Z,45.70
2024-04-14T06:35:45.264Z,45.55
2024-04-14T06:36:46.767Z,45.49
2024-04-14T06:37:48.240Z,45.34
2024-04-14T06:38:49.690Z,45.30
2024-04-14T06:39:51.845Z,45.40
2024-04-14T06:40:53.324Z,45.38
2024-04-14T06:41:54.963Z,45.25
2024-04-14T06:42:56.936Z,45.18
2024-04-14T06:43:58.458Z,45.18
2024-04-14T06:44:59.935Z,44.99
2024-04-14T06:46:02.450Z,45.05
2024-04-14T06:47:04.060Z,44.98
2024-04-14T06:48:05.656Z,44.94
2024-04-14T06:49:07.138Z,45.02
2024-04-14T06:50:11.014Z,44.99
2024-04-14T06:51:12.457Z,45.07
2024-04-14T06:52:13.913Z,45.24
2024-04-14T06:53:18.163Z,45.19
2024-04-14T06:54:19.623Z,45.37
2024-04-14T06:55:21.113Z,45.54
2024-04-14T06:56:23.150Z,45.81
2024-04-14T06:57:24.699Z,45.98
2024-04-14T06:58:26.325Z,46.09
2024-04-14T06:59:27.788Z,46.34
2024-04-14T07:00:29.380Z,46.65
2024-04-14T07:01:30.983Z,46.75
2024-04-14T07:02:32.526Z,46.98
2024-04-14T07:03:34.099Z,47.18
2024-04-14T07:04:35.734Z,47.35
2024-04-14T07:05:37.331Z,47.58
2024-04-14T07:06:38.772Z,47.64
2024-04-14T07:07:40.262Z,47.68
2024-04-14T07:08:41.711Z,47.77
2024-04-14T07:09:43.239Z,47.98
2024-04-14T07:10:44.765Z,48.30
2024-04-14T07:11:46.260Z,48.75
2024-04-14T07:12:47.805Z,48.74
2024-04-14T07:13:49.259Z,48.89
2024-04-14T07:14:50.793Z,48.98
2024-04-14T07:15:52.335Z,49.04
2024-04-14T07:16:53.872Z,48.92
2024-04-14T07:17:55.495Z,49.13
2024-04-14T07:18:57.022Z,49.48
2024-04-14T07:19:58.486Z,49.54
2024-04-14T07:21:03.538Z,49.76
2024-04-14T07:22:05.016Z,49.93
2024-04-14T07:23:07.107Z,50.03
2024-04-14T07:24:08.568Z,50.36
2024-04-14T07:25:11.050Z,50.73
2024-04-14T07:26:12.547Z,51.01
2024-04-14T07:27:13.996Z,51.01
2024-04-14T07:28:15.457Z,51.01
2024-04-14T07:29:16.931Z,51.04
2024-04-14T07:30:18.410Z,51.20
2024-04-14T07:31:22.566Z,51.39
2024-04-14T07:32:25.326Z,50.83
2024-04-14T07:33:26.871Z,51.06
2024-04-14T07:34:28.420Z,51.14
2024-04-14T07:35:29.878Z,51.02
2024-04-14T07:36:31.385Z,51.06
2024-04-14T07:37:33.180Z,50.92
2024-04-14T07:38:34.667Z,51.00
2024-04-14T07:39:37.129Z,51.38
2024-04-14T07:40:40.755Z,50.67
2024-04-14T07:41:42.376Z,50.20
2024-04-14T07:42:43.854Z,49.89
2024-04-14T07:43:46.198Z,49.10
2024-04-14T07:44:47.668Z,49.22
2024-04-14T07:45:49.196Z,48.46
2024-04-14T07:46:50.659Z,48.07
2024-04-14T07:47:52.152Z,47.51
2024-04-14T07:48:54.087Z,47.52
2024-04-14T07:49:55.606Z,47.35
2024-04-14T07:50:57.067Z,47.31
2024-04-14T07:51:58.608Z,47.36
2024-04-14T07:53:00.125Z,47.33
2024-04-14T07:54:01.610Z,47.60
2024-04-14T07:55:03.146Z,47.89
2024-04-14T07:56:05.114Z,47.90
2024-04-14T07:57:09.146Z,47.80
2024-04-14T07:58:10.679Z,47.54
2024-04-14T07:59:12.160Z,47.45
2024-04-14T08:00:13.615Z,47.35
2024-04-14T08:01:15.511Z,47.48
2024-04-14T08:02:16.985Z,47.31
2024-04-14T08:03:18.521Z,47.45
2024-04-14T08:04:20.134Z,47.61
2024-04-14T08:05:21.803Z,47.63
2024-04-14T08:06:23.292Z,47.73
2024-04-14T08:07:24.752Z,47.39
2024-04-14T08:08:26.232Z,47.32
2024-04-14T08:09:27.724Z,48.08
2024-04-14T08:10:29.172Z,47.65
2024-04-14T08:11:30.684Z,46.73
2024-04-14T08:12:32.204Z,46.48
2024-04-14T08:13:33.683Z,46.58
2024-04-14T08:14:35.148Z,46.93
2024-04-14T08:15:36.997Z,46.74
2024-04-14T08:16:38.456Z,46.40
2024-04-14T08:17:40.122Z,46.21
2024-04-14T08:18:41.605Z,46.09
2024-04-14T08:19:43.041Z,46.73
2024-04-14T08:20:45.496Z,46.89
2024-04-14T08:21:46.985Z,46.66
2024-04-14T08:22:48.513Z,46.34
2024-04-14T08:23:50.788Z,46.16
2024-04-14T08:24:52.267Z,46.17
2024-04-14T08:25:53.894Z,46.23
2024-04-14T08:26:55.345Z,46.06
2024-04-14T08:27:56.843Z,45.91
2024-04-14T08:28:58.302Z,45.74
2024-04-14T08:29:59.753Z,45.68
2024-04-14T08:31:01.295Z,46.00
2024-04-14T08:32:02.901Z,46.14
2024-04-14T08:33:04.563Z,46.26
2024-04-14T08:34:09.038Z,46.31
2024-04-14T08:35:10.854Z,46.55
2024-04-14T08:36:12.301Z,46.84
2024-04-14T08:37:15.006Z,46.23
2024-04-14T08:38:17.528Z,45.83
2024-04-14T08:39:18.968Z,45.22
2024-04-14T08:40:20.438Z,45.07
2024-04-14T08:41:24.870Z,45.29
2024-04-14T08:42:29.243Z,45.09
2024-04-14T08:43:30.906Z,44.82
2024-04-14T08:44:33.104Z,44.98
2024-04-14T08:45:37.182Z,44.56
2024-04-14T08:46:40.287Z,44.54
2024-04-14T08:47:44.784Z,44.42
2024-04-14T08:48:48.604Z,44.59
2024-04-14T08:49:53.101Z,44.82
2024-04-14T08:50:55.428Z,44.81
2024-04-14T08:51:57.941Z,44.81
2024-04-14T08:52:59.382Z,44.70
2024-04-14T08:54:00.862Z,44.57
2024-04-14T08:55:03.081Z,44.76
2024-04-14T08:56:04.889Z,44.59
2024-04-14T08:57:06.616Z,44.46
2024-04-14T08:58:09.665Z,44.52
2024-04-14T08:59:11.752Z,44.49
2024-04-14T09:00:15.366Z,44.19
2024-04-14T09:01:17.129Z,44.11
2024-04-14T09:02:18.729Z,43.96
2024-04-14T09:03:20.986Z,44.06
2024-04-14T09:04:22.606Z,43.83
2024-04-14T09:05:24.976Z,43.35
2024-04-14T09:06:29.294Z,43.47
2024-04-14T09:07:31.972Z,43.75
2024-04-14T09:08:33.494Z,43.70
2024-04-14T09:09:35.654Z,43.63
2024-04-14T09:10:37.137Z,43.73
2024-04-14T09:11:38.597Z,43.66
2024-04-14T09:12:46.191Z,43.48
2024-04-14T09:13:47.642Z,43.80
2024-04-14T09:14:49.174Z,43.81
2024-04-14T09:15:51.480Z,44.04
2024-04-14T09:16:52.999Z,44.17
2024-04-14T09:17:54.827Z,44.38
2024-04-14T09:18:56.478Z,44.31
2024-04-14T09:19:57.989Z,44.12
2024-04-14T09:21:01.514Z,44.04
2024-04-14T09:22:05.012Z,43.86
2024-04-14T09:23:07.335Z,43.47
2024-04-14T09:24:08.795Z,43.55
2024-04-14T09:25:12.147Z,43.54
2024-04-14T09:26:13.602Z,43.59
2024-04-14T09:27:15.853Z,43.73
2024-04-14T09:28:17.338Z,43.60
2024-04-14T09:29:18.784Z,43.02
2024-04-14T09:30:20.614Z,43.10
2024-04-14T09:31:23.470Z,43.40
2024-04-14T09:32:26.127Z,43.41
2024-04-14T09:33:27.685Z,43.47
2024-04-14T09:34:29.149Z,43.25
2024-04-14T09:35:30.833Z,43.54
2024-04-14T09:36:32.404Z,43.78
2024-04-14T09:37:34.261Z,43.96
2024-04-14T09:38:36.054Z,43.84
2024-04-14T09:39:38.357Z,43.75
2024-04-14T09:40:39.878Z,43.96
2024-04-14T09:41:41.661Z,44.12
2024-04-14T09:42:45.201Z,43.96
2024-04-14T09:43:46.754Z,43.71
2024-04-14T09:44:49.043Z,43.75
2024-04-14T09:45:51.308Z,44.00
2024-04-14T09:46:53.105Z,44.25
2024-04-14T09:47:55.855Z,44.05
2024-04-14T09:48:57.737Z,43.75
2024-04-14T09:49:59.356Z,43.63
2024-04-14T09:51:01.582Z,43.67
2024-04-14T09:52:05.133Z,43.67
2024-04-14T09:53:07.949Z,43.82
2024-04-14T09:54:14.385Z,44.00
2024-04-14T09:55:16.065Z,44.42
2024-04-14T09:56:17.942Z,43.92
2024-04-14T09:57:21.329Z,43.75
2024-04-14T09:58:22.778Z,43.69
2024-04-14T09:59:24.240Z,43.79
2024-04-14T10:00:26.078Z,43.70
2024-04-14T10:01:32.344Z,43.80
2024-04-14T10:02:40.641Z,43.67
2024-04-14T10:03:44.064Z,43.33
2024-04-14T10:04:47.182Z,43.47
2024-04-14T10:05:50.403Z,43.80
2024-04-14T10:06:52.062Z,43.61
2024-04-14T10:07:54.137Z,43.32
2024-04-14T10:08:56.013Z,42.95
2024-04-14T10:09:57.496Z,42.81
2024-04-14T10:11:01.346Z,42.76
2024-04-14T10:12:03.595Z,42.76
2024-04-14T10:13:08.898Z,42.65
2024-04-14T10:14:12.791Z,42.89
2024-04-14T10:15:15.201Z,43.09
2024-04-14T10:16:18.576Z,42.86
2024-04-14T10:17:21.109Z,42.76
2024-04-14T10:18:24.822Z,42.52
2024-04-14T10:19:26.313Z,42.51
2024-04-14T10:20:27.774Z,42.58
2024-04-14T10:21:29.733Z,42.84
2024-04-14T10:22:38.786Z,43.03
2024-04-14T10:23:45.895Z,43.24
2024-04-14T10:24:48.408Z,43.28
2024-04-14T10:25:50.897Z,42.91
2024-04-14T10:26:52.810Z,42.57
2024-04-14T10:27:54.710Z,42.63
2024-04-14T10:28:56.756Z,42.50
2024-04-14T10:29:58.943Z,42.35
2024-04-14T10:31:02.029Z,42.00
2024-04-14T10:32:03.884Z,41.45
2024-04-14T10:33:10.040Z,41.27
2024-04-14T10:34:21.455Z,40.62
2024-04-14T10:35:24.737Z,40.62
2024-04-14T10:36:27.124Z,40.76
2024-04-14T10:37:29.039Z,40.98
2024-04-14T10:38:34.603Z,41.26
2024-04-14T10:39:40.240Z,41.67
2024-04-14T10:40:41.864Z,41.75
2024-04-14T10:41:43.316Z,41.41
2024-04-14T10:42:46.012Z,41.45
2024-04-14T10:43:47.471Z,41.52
2024-04-14T10:44:49.727Z,41.53
2024-04-14T10:45:51.440Z,41.69
2024-04-14T10:46:52.997Z,41.42
2024-04-14T10:47:58.110Z,40.72
2024-04-14T10:48:59.726Z,39.55
2024-04-14T10:50:01.221Z,38.91
2024-04-14T10:51:02.766Z,39.02
2024-04-14T10:52:04.328Z,39.02
2024-04-14T10:53:05.815Z,39.10
2024-04-14T10:54:07.285Z,39.17
2024-04-14T10:55:08.775Z,39.60
2024-04-14T10:56:10.546Z,39.81
2024-04-14T10:57:13.715Z,39.34
2024-04-14T10:58:15.164Z,39.08
2024-04-14T10:59:16.674Z,39.07
2024-04-14T11:00:18.132Z,39.31
2024-04-14T11:01:19.829Z,39.39
2024-04-14T11:02:21.351Z,38.90
2024-04-14T11:03:23.475Z,38.73
2024-04-14T11:04:25.262Z,38.48
2024-04-14T11:05:26.844Z,38.52
2024-04-14T11:06:28.614Z,38.44
2024-04-14T11:07:30.278Z,38.55
2024-04-14T11:08:33.626Z,38.43
2024-04-14T11:09:35.990Z,38.34
2024-04-14T11:10:37.917Z,38.54
2024-04-14T11:11:41.047Z,38.58
2024-04-14T11:12:43.731Z,38.31
2024-04-14T11:13:45.403Z,38.27
2024-04-14T11:14:46.915Z,38.65
2024-04-14T11:15:48.503Z,37.95
2024-04-14T11:16:50.568Z,37.52
2024-04-14T11:17:53.574Z,37.54
2024-04-14T11:18:56.381Z,37.66
2024-04-14T11:19:57.933Z,38.25
2024-04-14T11:20:59.733Z,38.48
2024-04-14T11:22:01.713Z,38.11
2024-04-14T11:23:03.933Z,37.35
2024-04-14T11:24:11.645Z,36.70
2024-04-14T11:25:13.179Z,37.07
2024-04-14T11:26:14.632Z,37.08
2024-04-14T11:27:16.349Z,36.76
2024-04-14T11:28:17.937Z,36.61
2024-04-14T11:29:19.878Z,36.81
2024-04-14T11:30:28.663Z,37.23
2024-04-14T11:31:31.456Z,37.43
2024-04-14T11:32:36.354Z,37.73
2024-04-14T11:33:41.122Z,38.17
2024-04-14T11:34:42.612Z,38.17
2024-04-14T11:35:44.121Z,38.17
2024-04-14T11:36:47.544Z,38.36
2024-04-14T11:37:51.296Z,38.44
2024-04-14T11:38:53.003Z,37.81
2024-04-14T11:39:56.631Z,37.59
2024-04-14T11:40:58.199Z,37.35
2024-04-14T11:41:59.672Z,37.35
2024-04-14T11:43:01.149Z,37.13
2024-04-14T11:44:02.627Z,37.12
2024-04-14T11:45:04.491Z,37.38
2024-04-14T11:46:08.351Z,37.70
2024-04-14T11:47:11.589Z,37.99
2024-04-14T11:48:13.092Z,38.23
2024-04-14T11:49:14.564Z,37.80
2024-04-14T11:50:16.039Z,37.33
2024-04-14T11:51:17.576Z,36.74
2024-04-14T11:52:19.565Z,36.39
2024-04-14T11:53:21.168Z,36.65
2024-04-14T11:54:22.677Z,36.54
2024-04-14T11:55:24.108Z,36.28
2024-04-14T11:56:25.590Z,35.99
2024-04-14T11:57:27.037Z,35.94
2024-04-14T11:58:28.778Z,36.16
2024-04-14T11:59:30.229Z,36.59
2024-04-14T12:00:31.795Z,36.65
2024-04-14T12:01:33.451Z,36.83
2024-04-14T12:02:35.099Z,37.10
2024-04-14T12:03:36.599Z,37.24
2024-04-14T12:04:38.124Z,37.12
2024-04-14T12:05:39.581Z,37.26
2024-04-14T12:06:41.118Z,36.71
2024-04-14T12:07:42.593Z,36.08
2024-04-14T12:08:44.033Z,35.76
2024-04-14T12:09:45.531Z,35.52
2024-04-14T12:10:47.007Z,35.45
2024-04-14T12:11:48.587Z,35.52
2024-04-14T12:12:50.355Z,35.57
2024-04-14T12:13:51.846Z,35.46
2024-04-14T12:14:53.281Z,35.21
2024-04-14T12:15:56.972Z,34.99
2024-04-14T12:16:59.901Z,35.02
2024-04-14T12:18:01.508Z,35.22
2024-04-14T12:19:03.530Z,35.55
2024-04-14T12:20:05.361Z,35.95
2024-04-14T12:21:06.839Z,36.27
2024-04-14T12:22:08.510Z,36.42
2024-04-14T12:23:10.023Z,36.76
2024-04-14T12:24:11.662Z,37.29
2024-04-14T12:25:13.192Z,37.74
2024-04-14T12:26:15.438Z,38.18
2024-04-14T12:27:16.928Z,38.50
2024-04-14T12:28:18.357Z,38.58
2024-04-14T12:29:19.871Z,38.58
2024-04-14T12:30:26.712Z,38.35
2024-04-14T12:31:33.538Z,38.28
2024-04-14T12:32:36.099Z,38.76
2024-04-14T12:33:40.514Z,38.46
2024-04-14T12:34:42.055Z,37.81
2024-04-14T12:35:43.495Z,37.98
2024-04-14T12:36:44.989Z,38.30
2024-04-14T12:37:46.478Z,38.33
2024-04-14T12:38:47.917Z,38.31
2024-04-14T12:39:51.630Z,38.47
2024-04-14T12:40:53.089Z,38.50
2024-04-14T12:41:54.534Z,38.40
2024-04-14T12:42:57.769Z,37.69
2024-04-14T12:43:59.233Z,38.08
2024-04-14T12:45:00.690Z,38.61
2024-04-14T12:46:02.370Z,38.66
2024-04-14T12:47:04.119Z,38.61
2024-04-14T12:48:08.871Z,38.65
2024-04-14T12:49:14.316Z,38.45
2024-04-14T12:50:26.287Z,38.04
2024-04-14T12:51:33.955Z,37.69
2024-04-14T12:52:35.455Z,37.07
2024-04-14T12:53:36.972Z,36.91
2024-04-14T12:54:38.430Z,37.26
2024-04-14T12:55:39.987Z,37.60
2024-04-14T12:56:41.452Z,37.85
2024-04-14T12:57:42.934Z,37.90
2024-04-14T12:58:44.397Z,37.95
2024-04-14T12:59:47.368Z,37.55
2024-04-14T13:00:50.713Z,37.20
2024-04-14T13:01:52.235Z,36.58
2024-04-14T13:02:53.718Z,36.27
2024-04-14T13:03:55.227Z,36.38
2024-04-14T13:04:56.769Z,36.40
2024-04-14T13:06:01.641Z,36.20
2024-04-14T13:07:04.012Z,35.95
2024-04-14T13:08:05.708Z,35.96
2024-04-14T13:09:07.211Z,35.77
2024-04-14T13:10:08.686Z,35.62
2024-04-14T13:11:10.147Z,35.84
2024-04-14T13:12:11.645Z,36.20
2024-04-14T13:13:13.139Z,36.19
2024-04-14T13:14:14.624Z,36.25
2024-04-14T13:15:16.587Z,36.39
2024-04-14T13:16:18.144Z,36.48
2024-04-14T13:17:19.968Z,36.63
2024-04-14T13:18:21.429Z,36.59
2024-04-14T13:19:22.904Z,36.48